sensor_id;sensor_type;location;lat;lon;timestamp;pressure;altitude;pressure_sealevel;temperature;humidity
5883;BME280;2967;51.488;6.618;2023-02-23T00:04:20;100793.22;;;9.96;100.00
5883;BME280;2967;51.488;6.618;2023-02-23T00:09:44;100942.97;;;10.67;100.00
5883;BME280;2967;51.488;6.618;2023-02-23T00:15:08;100996.47;;;11.12;100.00
5883;BME280;2967;51.488;6.618;2023-02-23T00:20:33;100973.81;;;11.08;100.00
5883;BME280;2967;51.488;6.618;2023-02-23T00:25:56;100953.22;;;10.85;100.00
5883;BME280;2967;51.488;6.618;2023-02-23T00:31:21;100882.72;;;10.44;100.00
5883;BME280;2967;51.488;6.618;2023-02-23T00:36:50;100966.13;;;10.77;100.00
5883;BME280;2967;51.488;6.618;2023-02-23T00:42:14;100950.78;;;10.82;100.00
5883;BME280;2967;51.488;6.618;2023-02-23T00:47:39;100855.63;;;10.27;100.00
5883;BME280;2967;51.488;6.618;2023-02-23T00:53:08;100931.97;;;10.87;100.00
5883;BME280;2967;51.488;6.618;2023-02-23T00:58:32;100884.84;;;10.65;100.00
5883;BME280;2967;51.488;6.618;2023-02-23T01:03:57;100958.84;;;11.21;100.00
5883;BME280;2967;51.488;6.618;2023-02-23T01:09:21;100929.03;;;10.91;100.00
5883;BME280;2967;51.488;6.618;2023-02-23T01:14:49;100740.75;;;9.90;100.00
5883;BME280;2967;51.488;6.618;2023-02-23T01:20:15;100960.28;;;11.13;100.00
5883;BME280;2967;51.488;6.618;2023-02-23T01:25:43;100943.88;;;10.80;100.00
5883;BME280;2967;51.488;6.618;2023-02-23T01:31:07;100913.06;;;10.39;100.00
5883;BME280;2967;51.488;6.618;2023-02-23T01:36:32;100971.16;;;11.08;100.00
5883;BME280;2967;51.488;6.618;2023-02-23T01:41:57;100911.53;;;10.48;100.00
5883;BME280;2967;51.488;6.618;2023-02-23T01:47:20;100962.91;;;10.58;100.00
5883;BME280;2967;51.488;6.618;2023-02-23T01:52:49;100878.72;;;10.51;100.00
5883;BME280;2967;51.488;6.618;2023-02-23T01:58:18;100959.13;;;10.62;100.00
5883;BME280;2967;51.488;6.618;2023-02-23T02:03:46;100761.81;;;9.64;100.00
5883;BME280;2967;51.488;6.618;2023-02-23T02:09:13;100956.38;;;10.64;100.00
5883;BME280;2967;51.488;6.618;2023-02-23T02:14:40;100955.31;;;10.66;100.00
5883;BME280;2967;51.488;6.618;2023-02-23T02:26:05;100902.91;;;10.59;100.00
5883;BME280;2967;51.488;6.618;2023-02-23T02:32:02;100940.88;;;10.86;100.00
5883;BME280;2967;51.488;6.618;2023-02-23T02:37:47;100961.34;;;10.96;100.00
5883;BME280;2967;51.488;6.618;2023-02-23T02:43:23;100957.41;;;10.75;100.00
5883;BME280;2967;51.488;6.618;2023-02-23T02:48:56;100952.22;;;10.74;100.00
5883;BME280;2967;51.488;6.618;2023-02-23T02:54:29;100960.63;;;10.25;100.00
5883;BME280;2967;51.488;6.618;2023-02-23T02:59:57;100895.09;;;10.43;100.00
5883;BME280;2967;51.488;6.618;2023-02-23T03:05:43;100694.44;;;9.15;100.00
5883;BME280;2967;51.488;6.618;2023-02-23T03:11:30;100923.22;;;10.17;100.00
5883;BME280;2967;51.488;6.618;2023-02-23T03:17:23;100920.88;;;10.54;100.00
5883;BME280;2967;51.488;6.618;2023-02-23T03:23:13;100953.06;;;10.33;100.00
5883;BME280;2967;51.488;6.618;2023-02-23T03:29:08;100878.72;;;9.95;100.00
5883;BME280;2967;51.488;6.618;2023-02-23T03:34:56;100838.84;;;10.14;100.00
5883;BME280;2967;51.488;6.618;2023-02-23T03:40:42;100966.84;;;10.65;100.00
5883;BME280;2967;51.488;6.618;2023-02-23T03:46:29;100968.28;;;10.57;100.00
5883;BME280;2967;51.488;6.618;2023-02-23T03:52:15;100962.59;;;10.77;100.00
5883;BME280;2967;51.488;6.618;2023-02-23T03:57:59;100974.06;;;10.77;100.00
5883;BME280;2967;51.488;6.618;2023-02-23T04:03:45;100968.75;;;10.77;100.00
5883;BME280;2967;51.488;6.618;2023-02-23T04:09:28;100896.88;;;10.57;100.00
5883;BME280;2967;51.488;6.618;2023-02-23T04:15:13;100975.19;;;10.87;100.00
5883;BME280;2967;51.488;6.618;2023-02-23T04:20:39;100739.72;;;9.37;100.00
5883;BME280;2967;51.488;6.618;2023-02-23T04:26:03;100984.53;;;10.65;100.00
5883;BME280;2967;51.488;6.618;2023-02-23T04:31:33;100961.16;;;10.85;100.00
5883;BME280;2967;51.488;6.618;2023-02-23T04:36:59;100978.94;;;10.83;100.00
5883;BME280;2967;51.488;6.618;2023-02-23T04:42:24;100983.88;;;10.89;100.00
5883;BME280;2967;51.488;6.618;2023-02-23T04:47:48;100988.13;;;10.78;100.00
5883;BME280;2967;51.488;6.618;2023-02-23T04:53:17;100989.41;;;10.99;100.00
5883;BME280;2967;51.488;6.618;2023-02-23T04:58:52;100920.78;;;10.28;100.00
5883;BME280;2967;51.488;6.618;2023-02-23T05:04:15;101007.19;;;10.69;100.00
5883;BME280;2967;51.488;6.618;2023-02-23T05:09:40;100988.31;;;10.75;100.00
5883;BME280;2967;51.488;6.618;2023-02-23T05:15:04;100997.34;;;10.99;100.00
5883;BME280;2967;51.488;6.618;2023-02-23T05:20:28;101002.38;;;10.89;100.00
5883;BME280;2967;51.488;6.618;2023-02-23T05:25:58;100999.72;;;11.03;100.00
5883;BME280;2967;51.488;6.618;2023-02-23T05:31:23;100939.09;;;10.72;100.00
5883;BME280;2967;51.488;6.618;2023-02-23T05:36:50;100996.25;;;10.47;100.00
5883;BME280;2967;51.488;6.618;2023-02-23T05:42:14;100969.59;;;10.36;100.00
5883;BME280;2967;51.488;6.618;2023-02-23T05:47:39;100991.50;;;10.52;100.00
5883;BME280;2967;51.488;6.618;2023-02-23T05:53:02;100988.88;;;10.52;100.00
5883;BME280;2967;51.488;6.618;2023-02-23T05:58:27;100783.41;;;9.13;100.00
5883;BME280;2967;51.488;6.618;2023-02-23T06:03:51;100989.69;;;10.25;100.00
5883;BME280;2967;51.488;6.618;2023-02-23T06:09:17;101017.47;;;10.32;100.00
5883;BME280;2967;51.488;6.618;2023-02-23T06:14:50;100988.25;;;10.05;100.00
5883;BME280;2967;51.488;6.618;2023-02-23T06:20:15;100980.63;;;9.85;100.00
5883;BME280;2967;51.488;6.618;2023-02-23T06:25:43;100936.22;;;9.47;100.00
5883;BME280;2967;51.488;6.618;2023-02-23T06:31:07;101040.34;;;10.03;100.00
5883;BME280;2967;51.488;6.618;2023-02-23T06:36:31;101042.81;;;9.91;100.00
5883;BME280;2967;51.488;6.618;2023-02-23T06:41:54;100951.75;;;9.37;100.00
5883;BME280;2967;51.488;6.618;2023-02-23T06:47:19;100739.50;;;7.91;100.00
5883;BME280;2967;51.488;6.618;2023-02-23T06:52:45;101042.50;;;9.66;100.00
5883;BME280;2967;51.488;6.618;2023-02-23T06:58:08;100917.50;;;8.75;100.00
5883;BME280;2967;51.488;6.618;2023-02-23T07:09:53;101045.28;;;9.18;100.00
5883;BME280;2967;51.488;6.618;2023-02-23T07:15:16;101031.91;;;9.21;100.00
5883;BME280;2967;51.488;6.618;2023-02-23T07:20:41;101082.81;;;9.54;100.00
5883;BME280;2967;51.488;6.618;2023-02-23T07:26:05;101050.81;;;9.29;100.00
5883;BME280;2967;51.488;6.618;2023-02-23T07:31:31;101086.72;;;9.47;100.00
5883;BME280;2967;51.488;6.618;2023-02-23T07:36:54;101046.97;;;9.19;100.00
5883;BME280;2967;51.488;6.618;2023-02-23T07:42:19;101125.75;;;9.57;100.00
5883;BME280;2967;51.488;6.618;2023-02-23T07:47:42;101088.72;;;9.28;100.00
5883;BME280;2967;51.488;6.618;2023-02-23T07:53:05;101047.47;;;8.94;100.00
5883;BME280;2967;51.488;6.618;2023-02-23T07:58:29;101113.00;;;9.65;100.00
5883;BME280;2967;51.488;6.618;2023-02-23T08:03:53;101126.53;;;9.75;100.00
5883;BME280;2967;51.488;6.618;2023-02-23T08:09:16;101114.44;;;9.40;100.00
5883;BME280;2967;51.488;6.618;2023-02-23T08:14:47;101136.50;;;9.39;100.00
5883;BME280;2967;51.488;6.618;2023-02-23T08:21:12;100681.69;;;6.92;100.00
5883;BME280;2967;51.488;6.618;2023-02-23T08:33:46;101135.88;;;9.49;100.00
5883;BME280;2967;51.488;6.618;2023-02-23T08:39:09;101130.97;;;9.43;100.00
5883;BME280;2967;51.488;6.618;2023-02-23T08:44:32;101154.88;;;9.40;100.00
5883;BME280;2967;51.488;6.618;2023-02-23T08:50:04;101073.50;;;9.16;100.00
5883;BME280;2967;51.488;6.618;2023-02-23T08:55:37;101160.78;;;9.61;100.00
5883;BME280;2967;51.488;6.618;2023-02-23T09:01:48;101018.28;;;8.65;100.00
5883;BME280;2967;51.488;6.618;2023-02-23T09:07:15;101172.78;;;9.97;100.00
5883;BME280;2967;51.488;6.618;2023-02-23T09:12:38;101145.88;;;9.91;100.00
5883;BME280;2967;51.488;6.618;2023-02-23T09:18:02;101170.78;;;10.18;100.00
5883;BME280;2967;51.488;6.618;2023-02-23T09:23:32;101179.28;;;10.23;100.00
5883;BME280;2967;51.488;6.618;2023-02-23T09:28:57;101089.38;;;9.93;100.00
5883;BME280;2967;51.488;6.618;2023-02-23T09:41:52;101168.13;;;10.18;100.00
5883;BME280;2967;51.488;6.618;2023-02-23T09:47:32;101141.03;;;10.14;100.00
5883;BME280;2967;51.488;6.618;2023-02-23T09:53:30;101176.13;;;10.01;100.00
5883;BME280;2967;51.488;6.618;2023-02-23T09:58:57;101211.97;;;10.06;100.00
5883;BME280;2967;51.488;6.618;2023-02-23T10:04:22;101129.91;;;9.46;100.00
5883;BME280;2967;51.488;6.618;2023-02-23T10:09:58;101230.28;;;10.25;100.00
5883;BME280;2967;51.488;6.618;2023-02-23T10:15:33;101035.63;;;9.17;100.00
5883;BME280;2967;51.488;6.618;2023-02-23T10:21:02;101232.22;;;10.37;100.00
5883;BME280;2967;51.488;6.618;2023-02-23T10:26:34;101238.72;;;10.31;100.00
5883;BME280;2967;51.488;6.618;2023-02-23T10:32:04;101059.47;;;9.00;100.00
5883;BME280;2967;51.488;6.618;2023-02-23T10:37:29;100841.25;;;7.92;100.00
5883;BME280;2967;51.488;6.618;2023-02-23T10:42:53;101190.78;;;9.91;100.00
5883;BME280;2967;51.488;6.618;2023-02-23T10:48:24;101101.22;;;9.55;100.00
5883;BME280;2967;51.488;6.618;2023-02-23T10:53:48;101217.16;;;10.39;100.00
5883;BME280;2967;51.488;6.618;2023-02-23T10:59:20;101165.06;;;9.79;100.00
5883;BME280;2967;51.488;6.618;2023-02-23T11:05:03;101242.28;;;9.99;100.00
5883;BME280;2967;51.488;6.618;2023-02-23T11:10:28;101248.88;;;10.23;100.00
5883;BME280;2967;51.488;6.618;2023-02-23T11:15:58;101258.66;;;10.37;100.00
5883;BME280;2967;51.488;6.618;2023-02-23T11:21:39;101106.94;;;9.79;100.00
5883;BME280;2967;51.488;6.618;2023-02-23T11:27:18;101013.69;;;8.68;100.00
5883;BME280;2967;51.488;6.618;2023-02-23T11:32:43;101250.34;;;10.29;100.00
5883;BME280;2967;51.488;6.618;2023-02-23T11:38:22;101244.69;;;10.35;100.00
5883;BME280;2967;51.488;6.618;2023-02-23T11:43:47;101245.38;;;10.38;100.00
5883;BME280;2967;51.488;6.618;2023-02-23T11:49:13;101162.16;;;9.99;100.00
5883;BME280;2967;51.488;6.618;2023-02-23T11:54:46;101195.41;;;10.03;100.00
5883;BME280;2967;51.488;6.618;2023-02-23T12:00:21;101235.41;;;10.43;100.00
5883;BME280;2967;51.488;6.618;2023-02-23T12:05:49;101245.03;;;10.44;100.00
5883;BME280;2967;51.488;6.618;2023-02-23T12:11:17;101226.59;;;10.43;100.00
5883;BME280;2967;51.488;6.618;2023-02-23T12:16:44;101227.06;;;10.64;100.00
5883;BME280;2967;51.488;6.618;2023-02-23T12:22:11;101230.72;;;10.62;100.00
5883;BME280;2967;51.488;6.618;2023-02-23T12:27:41;101229.16;;;10.73;100.00
5883;BME280;2967;51.488;6.618;2023-02-23T12:33:11;101233.22;;;10.65;100.00
5883;BME280;2967;51.488;6.618;2023-02-23T12:38:46;101199.47;;;10.39;100.00
5883;BME280;2967;51.488;6.618;2023-02-23T12:44:20;101240.88;;;10.69;100.00
5883;BME280;2967;51.488;6.618;2023-02-23T12:49:58;101019.38;;;9.55;100.00
5883;BME280;2967;51.488;6.618;2023-02-23T12:56:12;101240.16;;;10.81;100.00
5883;BME280;2967;51.488;6.618;2023-02-23T13:01:45;101231.59;;;10.62;100.00
5883;BME280;2967;51.488;6.618;2023-02-23T13:07:17;101234.69;;;10.55;100.00
5883;BME280;2967;51.488;6.618;2023-02-23T13:12:50;101242.00;;;10.65;100.00
5883;BME280;2967;51.488;6.618;2023-02-23T13:18:21;101159.31;;;10.02;100.00
5883;BME280;2967;51.488;6.618;2023-02-23T13:23:53;101233.28;;;10.34;100.00
5883;BME280;2967;51.488;6.618;2023-02-23T13:29:28;101225.41;;;10.33;100.00
5883;BME280;2967;51.488;6.618;2023-02-23T13:34:56;101230.19;;;10.26;100.00
5883;BME280;2967;51.488;6.618;2023-02-23T13:40:28;101191.13;;;10.16;100.00
5883;BME280;2967;51.488;6.618;2023-02-23T13:46:02;101239.75;;;10.44;100.00
5883;BME280;2967;51.488;6.618;2023-02-23T13:51:38;101201.44;;;10.20;100.00
5883;BME280;2967;51.488;6.618;2023-02-23T13:57:13;101128.34;;;10.05;100.00
5883;BME280;2967;51.488;6.618;2023-02-23T14:02:39;101136.47;;;10.01;100.00
5883;BME280;2967;51.488;6.618;2023-02-23T14:08:05;101244.25;;;10.42;100.00
5883;BME280;2967;51.488;6.618;2023-02-23T14:13:32;101172.22;;;10.23;100.00
5883;BME280;2967;51.488;6.618;2023-02-23T14:26:10;101260.50;;;10.65;100.00
5883;BME280;2967;51.488;6.618;2023-02-23T14:32:15;100761.91;;;7.82;100.00
5883;BME280;2967;51.488;6.618;2023-02-23T14:37:58;101099.94;;;9.93;100.00
5883;BME280;2967;51.488;6.618;2023-02-23T14:43:44;101246.97;;;10.85;100.00
5883;BME280;2967;51.488;6.618;2023-02-23T14:49:48;101239.53;;;10.92;100.00
5883;BME280;2967;51.488;6.618;2023-02-23T14:55:31;100971.13;;;9.22;100.00
5883;BME280;2967;51.488;6.618;2023-02-23T15:01:01;101231.09;;;10.56;100.00
5883;BME280;2967;51.488;6.618;2023-02-23T15:06:24;101181.19;;;10.05;100.00
5883;BME280;2967;51.488;6.618;2023-02-23T15:11:49;101198.13;;;10.17;100.00
5883;BME280;2967;51.488;6.618;2023-02-23T15:17:57;100981.88;;;8.71;100.00
5883;BME280;2967;51.488;6.618;2023-02-23T15:23:48;101179.28;;;9.92;100.00
5883;BME280;2967;51.488;6.618;2023-02-23T15:29:18;101013.69;;;8.68;100.00
5883;BME280;2967;51.488;6.618;2023-02-23T15:34:44;101252.56;;;10.21;100.00
5883;BME280;2967;51.488;6.618;2023-02-23T15:40:16;101252.03;;;10.14;100.00
5883;BME280;2967;51.488;6.618;2023-02-23T15:45:43;101039.44;;;9.11;100.00
5883;BME280;2967;51.488;6.618;2023-02-23T15:51:20;101058.56;;;9.32;100.00
5883;BME280;2967;51.488;6.618;2023-02-23T15:56:48;101256.28;;;10.48;100.00
5883;BME280;2967;51.488;6.618;2023-02-23T16:02:13;101198.72;;;10.22;100.00
5883;BME280;2967;51.488;6.618;2023-02-23T16:07:40;101246.22;;;10.54;100.00
5883;BME280;2967;51.488;6.618;2023-02-23T16:13:05;101253.34;;;10.52;100.00
5883;BME280;2967;51.488;6.618;2023-02-23T16:18:34;101180.66;;;10.14;100.00
5883;BME280;2967;51.488;6.618;2023-02-23T16:24:09;101215.44;;;10.38;100.00
5883;BME280;2967;51.488;6.618;2023-02-23T16:29:43;101259.50;;;10.52;100.00
5883;BME280;2967;51.488;6.618;2023-02-23T16:35:15;100839.03;;;7.84;100.00
5883;BME280;2967;51.488;6.618;2023-02-23T16:40:40;101255.50;;;10.45;100.00
5883;BME280;2967;51.488;6.618;2023-02-23T16:46:04;101089.03;;;9.37;100.00
5883;BME280;2967;51.488;6.618;2023-02-23T16:51:32;101215.75;;;9.85;100.00
5883;BME280;2967;51.488;6.618;2023-02-23T16:57:33;101284.34;;;9.87;100.00
5883;BME280;2967;51.488;6.618;2023-02-23T17:03:03;101202.31;;;9.42;100.00
5883;BME280;2967;51.488;6.618;2023-02-23T17:08:39;101076.69;;;8.74;100.00
5883;BME280;2967;51.488;6.618;2023-02-23T17:14:37;101211.91;;;9.60;100.00
5883;BME280;2967;51.488;6.618;2023-02-23T17:27:31;101303.97;;;9.83;100.00
5883;BME280;2967;51.488;6.618;2023-02-23T17:46:06;100831.13;;;7.01;100.00
5883;BME280;2967;51.488;6.618;2023-02-23T17:51:50;101173.28;;;9.09;100.00
5883;BME280;2967;51.488;6.618;2023-02-23T17:57:21;101025.88;;;8.21;100.00
5883;BME280;2967;51.488;6.618;2023-02-23T18:03:12;101195.56;;;9.04;100.00
5883;BME280;2967;51.488;6.618;2023-02-23T18:08:56;101096.97;;;8.40;100.00
5883;BME280;2967;51.488;6.618;2023-02-23T18:14:27;101140.97;;;8.89;100.00
5883;BME280;2967;51.488;6.618;2023-02-23T18:20:09;100986.66;;;7.65;100.00
5883;BME280;2967;51.488;6.618;2023-02-23T18:26:16;101204.53;;;9.17;100.00
5883;BME280;2967;51.488;6.618;2023-02-23T18:32:41;101199.41;;;9.31;100.00
5883;BME280;2967;51.488;6.618;2023-02-23T18:37:55;101062.94;;;8.35;100.00
5883;BME280;2967;51.488;6.618;2023-02-23T18:43:41;101293.34;;;10.00;100.00
5883;BME280;2967;51.488;6.618;2023-02-23T18:49:14;101205.84;;;9.58;100.00
5883;BME280;2967;51.488;6.618;2023-02-23T18:54:41;101091.72;;;9.05;100.00
5883;BME280;2967;51.488;6.618;2023-02-23T19:00:10;101289.31;;;9.93;100.00
5883;BME280;2967;51.488;6.618;2023-02-23T19:05:35;101248.84;;;9.44;100.00
5883;BME280;2967;51.488;6.618;2023-02-23T19:11:00;101229.19;;;9.33;100.00
5883;BME280;2967;51.488;6.618;2023-02-23T19:16:41;100881.75;;;6.88;100.00
5883;BME280;2967;51.488;6.618;2023-02-23T19:22:07;101294.44;;;9.48;100.00
5883;BME280;2967;51.488;6.618;2023-02-23T19:27:38;101225.41;;;9.21;100.00
5883;BME280;2967;51.488;6.618;2023-02-23T19:33:02;101121.59;;;8.56;100.00
5883;BME280;2967;51.488;6.618;2023-02-23T19:38:26;101133.06;;;8.55;100.00
5883;BME280;2967;51.488;6.618;2023-02-23T19:44:08;101091.69;;;8.23;100.00
5883;BME280;2967;51.488;6.618;2023-02-23T19:49:36;101172.47;;;8.75;100.00
5883;BME280;2967;51.488;6.618;2023-02-23T19:55:00;101154.22;;;8.70;100.00
5883;BME280;2967;51.488;6.618;2023-02-23T20:00:28;101088.53;;;8.66;100.00
5883;BME280;2967;51.488;6.618;2023-02-23T20:05:54;101126.44;;;8.48;100.00
5883;BME280;2967;51.488;6.618;2023-02-23T20:11:28;101245.53;;;9.24;100.00
5883;BME280;2967;51.488;6.618;2023-02-23T20:17:05;101326.25;;;9.11;100.00
5883;BME280;2967;51.488;6.618;2023-02-23T20:22:31;101141.66;;;7.70;100.00
5883;BME280;2967;51.488;6.618;2023-02-23T20:27:58;100872.75;;;5.61;100.00
5883;BME280;2967;51.488;6.618;2023-02-23T20:33:26;101344.38;;;8.47;100.00
5883;BME280;2967;51.488;6.618;2023-02-23T20:38:51;101340.25;;;8.23;100.00
5883;BME280;2967;51.488;6.618;2023-02-23T20:44:23;101070.38;;;6.44;100.00
5883;BME280;2967;51.488;6.618;2023-02-23T20:49:48;100990.69;;;6.05;100.00
5883;BME280;2967;51.488;6.618;2023-02-23T20:55:15;101334.50;;;7.95;100.00
5883;BME280;2967;51.488;6.618;2023-02-23T21:01:06;101336.31;;;8.50;100.00
5883;BME280;2967;51.488;6.618;2023-02-23T21:13:24;101336.88;;;7.43;100.00
5883;BME280;2967;51.488;6.618;2023-02-23T21:19:00;100749.81;;;4.11;100.00
5883;BME280;2967;51.488;6.618;2023-02-23T21:24:29;101208.94;;;7.01;100.00
5883;BME280;2967;51.488;6.618;2023-02-23T21:30:01;101352.44;;;7.68;100.00
5883;BME280;2967;51.488;6.618;2023-02-23T21:35:45;101149.22;;;6.84;100.00
5883;BME280;2967;51.488;6.618;2023-02-23T21:41:15;101311.41;;;8.00;100.00
5883;BME280;2967;51.488;6.618;2023-02-23T21:47:01;101338.56;;;8.02;100.00
5883;BME280;2967;51.488;6.618;2023-02-23T21:52:43;100834.47;;;5.17;100.00
5883;BME280;2967;51.488;6.618;2023-02-23T21:58:29;101335.13;;;7.82;100.00
5883;BME280;2967;51.488;6.618;2023-02-23T22:04:15;100924.09;;;5.26;100.00
5883;BME280;2967;51.488;6.618;2023-02-23T22:09:46;100925.06;;;5.24;100.00
5883;BME280;2967;51.488;6.618;2023-02-23T22:15:14;100913.66;;;5.03;100.00
5883;BME280;2967;51.488;6.618;2023-02-23T22:20:42;101308.06;;;7.40;100.00
5883;BME280;2967;51.488;6.618;2023-02-23T22:26:23;101244.56;;;8.03;100.00
5883;BME280;2967;51.488;6.618;2023-02-23T22:31:47;101261.25;;;8.22;100.00
5883;BME280;2967;51.488;6.618;2023-02-23T22:37:12;101279.09;;;7.60;100.00
5883;BME280;2967;51.488;6.618;2023-02-23T22:42:37;101306.88;;;7.47;100.00
5883;BME280;2967;51.488;6.618;2023-02-23T22:48:04;101138.44;;;6.30;100.00
5883;BME280;2967;51.488;6.618;2023-02-23T22:53:31;101283.06;;;6.90;100.00
5883;BME280;2967;51.488;6.618;2023-02-23T22:58:57;101192.03;;;6.46;100.00
5883;BME280;2967;51.488;6.618;2023-02-23T23:04:27;101134.56;;;5.97;100.00
5883;BME280;2967;51.488;6.618;2023-02-23T23:09:54;101307.19;;;7.20;100.00
5883;BME280;2967;51.488;6.618;2023-02-23T23:15:19;101268.78;;;6.96;100.00
5883;BME280;2967;51.488;6.618;2023-02-23T23:20:44;101221.50;;;6.94;100.00
5883;BME280;2967;51.488;6.618;2023-02-23T23:26:10;101314.63;;;7.10;100.00
5883;BME280;2967;51.488;6.618;2023-02-23T23:31:37;101304.94;;;7.11;100.00
5883;BME280;2967;51.488;6.618;2023-02-23T23:37:01;101191.78;;;6.52;100.00
5883;BME280;2967;51.488;6.618;2023-02-23T23:42:26;101290.53;;;6.79;100.00
5883;BME280;2967;51.488;6.618;2023-02-23T23:47:50;101280.66;;;7.44;100.00
5883;BME280;2967;51.488;6.618;2023-02-23T23:53:13;101231.44;;;6.88;100.00
5883;BME280;2967;51.488;6.618;2023-02-23T23:58:37;101144.34;;;6.35;100.00
